Kezdőlap
METAR-TAF:

METAR-TAF

Repülőterek :

Varsó-Chopin repülőtér

Varsó, Lengyelország

földrajzi szélesség: 52-10N, földrajzi hosszúság: 020-58E, magasság: 106 m

Jelenlegi meteorológiai megfigyelések

A jelentés 37 perccel ezelõtt készült, 03:30 UTC
Délkeleti szél 5 kt
Hőmérséklet 14°C
Páratartalom 82%
Légköri nyomás 1014 hPa
Látótávolság 10 km, vagy több
felhőtlen 1500 m magasságban, és nincs gomolyfelhõ

METAR: EPWA 150330Z 13005KT CAVOK 14/11 Q1014 NOSIG

Idő: 06:07 (04:07 UTC)

Előrejelzés

A jelentés 1 órával és 37 perccel ezelõtt készült, 02:30 UTC
Az előrejelzés 15-én 03 óra UTC és 16-én 03 óra UTC között érvényes
Dél-délkeleti szél 7 kt
Látótávolság 10 km, vagy több
felhőtlen 1500 m magasságban, és nincs gomolyfelhõ

TAF: EPWA 150230Z 1503/1603 15007KT CAVOK

Meteorológiai megfigyelések és előrejelzések több, mint 4000 repülőtéren (METAR és TAF jelentéseket).

A térképen piros és sárga pontok jelzik az elérhető meteorológiai állomásokat.

Mozgassa az egeret a pont fölött, hogy megjelenjen az állomás neve.

Azután kattintson az időjárási megfigyelések és előrejelzések megtekintéséhez.

A térkép megváltoztatása: kattintson a fekete keresztel jelölt zöld gombra ráközelítéshez, a vonallal jelölt zöld gombra távolításhoz, vagy a zöld nyilakra a szomszédos térképek eléréséhez.


METAR-TAF: